Americus, GA

7:25 PM EST on December 27, 2014 (GMT -0500)
Wildwood Circle | Change Station
CLOSE
Current Station
Personal Weather Station
Location: Americus, GA
Elevation: 402 ft
Nearby Weather Stations

Elev 402 ft 32.06 °N, 84.21 °W | Updated 40 minutes ago

Rain
Rain
57.4 °F
Feels Like 57.4 °F
N
0.0
Wind Variable Wind from North
Gusts 1.6 mph

Today
High -- | Low -- °F
--% Chance of Precip.
Yesterday
High -- | Low -- °F
Precip. -- in
7:36 AM 5:39 PM
Waxing Crescent, 41% visible
Pressure 30.27 in
Visibility 5.0 miles
Clouds Scattered Clouds 12000 ft
Dew Point 57 °F
Humidity 99%
Rainfall 0.18 in
Snow Depth Not available.
UV 0 out of 12
Pollen 1.10 out of 12
Air Quality Not available.
Flu Activity Not available.
METAR KACJ 280015Z AUTO 00000KT 5SM RA SCT120 14/14 A3027 RMK AO2

More Conditions Fewer Conditions

Pressure 30.27 in
Visibility 5.0 miles
Clouds Scattered Clouds 12000 ft
Dew Point 57 °F
Humidity 99%
Rainfall 0.18 in
Snow Depth Not available.
UV 0 out of 12
Pollen 1.10 out of 12
Air Quality Not available.
Flu Activity Not available.
METAR KACJ 280015Z AUTO 00000KT 5SM RA SCT120 14/14 A3027 RMK AO2

More Conditions Fewer Conditions

10-Day Weather Forecast

Almanac

Astronomy

Dec. 27, 2014 Rise Set
Actual Time
Civil Twilight
Nautical Twilight
Astronomical Twilight
Moon
Length of Visible Light
Length of Day
Tomorrow will be .
, % of the Moon is Illuminated

Today's Extremes

State Highs State Lows

Community

WunderPhotos

Upload Photos

1,781,116 photos uploaded!

WunderBlogs® & News

Nearby

Air Quality

  Air Quality AQ Index Pollutant
Not available.

Snow Depth

Station Depth Elevation

Earthquake Activity

City Distance Mag. Time & Date
Minimum magnitude displayed is 2.5.

Coastal Water Temperatures

Place Temperature

Nearby Weather Stations